Corson, South Dakota
Current Conditions -  °F | °C
As of 11:56 AM on Thursday 29 Jan 2015 (Local Time) from KFSD Reporting Station
Overcast Overcast  
Wind Chill: 20°   Ceiling: 2300
Heat Index: 32°   Visibility: 10mi
Dew Point: 23°   Wind: 18mph
Humidity: 69%   Direction: 350°N
Pressure: 30.41"   Gusts: NA
Location:  43.6275°N, 96.5916°W
Report Text: KFSD 291756Z 35016KT 10SM OVC023 00/M05 A3041 RMK AO2 PK WND 34030/1712 SLP314 T00001050 10000 21011 51025
Loading
Personal Weather Stations






























Interactive Weather Map New forecast layout! Learn more

10-Day Weather Forecast

Advertisements
Track Severe Weather on mobile